createdAt,value
2018-11-21T00:01:22.494Z,100422.95
2018-11-21T00:04:12.104Z,100421.88
2018-11-21T00:07:01.511Z,100421.16
2018-11-21T00:09:50.583Z,100412.59
2018-11-21T00:12:40.296Z,100412.70
2018-11-21T00:15:29.718Z,100404.91
2018-11-21T00:18:19.213Z,100411.31
2018-11-21T00:21:08.938Z,100413.37
2018-11-21T00:23:58.317Z,100418.46
2018-11-21T00:26:47.765Z,100422.58
2018-11-21T00:29:37.459Z,100422.50
2018-11-21T00:32:27.581Z,100429.99
2018-11-21T00:35:17.174Z,100430.28
2018-11-21T00:38:06.819Z,100439.34
2018-11-21T00:40:56.710Z,100442.30
2018-11-21T00:43:46.678Z,100430.77
2018-11-21T00:46:36.590Z,100424.97
2018-11-21T00:49:25.894Z,100417.11
2018-11-21T00:52:15.338Z,100416.52
2018-11-21T00:55:04.475Z,100416.81
2018-11-21T00:57:53.613Z,100410.11
2018-11-21T01:00:42.771Z,100396.44
2018-11-21T01:03:32.460Z,100406.30
2018-11-21T01:06:21.956Z,100426.33
2018-11-21T01:09:11.539Z,100424.90
2018-11-21T01:12:01.153Z,100423.25
2018-11-21T01:14:50.766Z,100414.19
2018-11-21T01:17:40.370Z,100405.88
2018-11-21T01:20:29.912Z,100409.25
2018-11-21T01:23:19.791Z,100402.81
2018-11-21T01:26:09.749Z,100400.87
2018-11-21T01:28:59.031Z,100400.50
2018-11-21T01:31:48.503Z,100406.86
2018-11-21T01:34:37.611Z,100402.96
2018-11-21T01:37:27.063Z,100403.60
2018-11-21T01:40:16.478Z,100405.17
2018-11-21T01:43:05.949Z,100419.52
2018-11-21T01:45:55.447Z,100427.19
2018-11-21T01:48:45.137Z,100430.37
2018-11-21T01:51:34.600Z,100424.15
2018-11-21T01:54:23.963Z,100408.73
2018-11-21T01:57:13.550Z,100406.11
2018-11-21T02:00:03.614Z,100406.89
2018-11-21T02:02:53.221Z,100408.95
2018-11-21T02:05:43.089Z,100398.36
2018-11-21T02:08:32.525Z,100376.16
2018-11-21T02:11:22.146Z,100359.84
2018-11-21T02:14:11.333Z,100339.13
2018-11-21T02:17:00.589Z,100325.00
2018-11-21T02:19:49.919Z,100310.19
2018-11-21T02:22:39.201Z,100308.75
2018-11-21T02:25:28.979Z,100306.83
2018-11-21T02:28:18.639Z,100304.00
2018-11-21T02:31:08.096Z,100305.25
2018-11-21T02:33:57.320Z,100294.87
2018-11-21T02:36:46.627Z,100301.92
2018-11-21T02:39:36.130Z,100306.93
2018-11-21T02:42:25.667Z,100292.98
2018-11-21T02:45:15.096Z,100294.47
2018-11-21T02:48:04.483Z,100301.84
2018-11-21T02:50:53.738Z,100308.58
2018-11-21T02:53:43.440Z,100313.11
2018-11-21T02:57:10.148Z,100332.27
2018-11-21T03:00:05.189Z,100329.34
2018-11-21T03:02:54.628Z,100325.97
2018-11-21T03:05:43.970Z,100341.80
2018-11-21T03:08:33.397Z,100313.26
2018-11-21T03:11:22.983Z,100288.27
2018-11-21T03:14:12.729Z,100260.38
2018-11-21T03:17:02.564Z,100236.83
2018-11-21T03:19:52.059Z,100219.80
2018-11-21T03:22:41.575Z,100174.23
2018-11-21T03:25:30.992Z,100156.56
2018-11-21T03:28:20.710Z,100123.20
2018-11-21T03:31:11.016Z,100177.30
2018-11-21T03:34:00.361Z,100174.67
2018-11-21T03:36:51.174Z,100177.17
2018-11-21T03:39:40.547Z,100178.56
2018-11-21T03:42:30.055Z,100176.58
2018-11-21T03:45:21.595Z,100170.34
2018-11-21T03:48:10.861Z,100156.48
2018-11-21T03:51:00.263Z,100132.13
2018-11-21T03:53:50.157Z,100079.20
2018-11-21T03:56:40.306Z,100080.52
2018-11-21T03:59:31.582Z,100101.87
2018-11-21T04:02:21.052Z,100092.20
2018-11-21T04:05:11.170Z,100087.13
2018-11-21T04:08:00.736Z,100073.68
2018-11-21T04:10:50.429Z,100084.51
2018-11-21T04:13:40.089Z,100081.75
2018-11-21T04:16:29.994Z,100087.20
2018-11-21T04:19:19.437Z,100078.23
2018-11-21T04:22:09.076Z,100085.94
2018-11-21T04:24:58.627Z,100094.64
2018-11-21T04:27:47.840Z,100088.70
2018-11-21T04:30:37.533Z,100093.96
2018-11-21T04:33:27.090Z,100085.41
2018-11-21T04:36:19.494Z,100084.36
2018-11-21T04:39:10.529Z,100098.92
2018-11-21T04:42:00.408Z,100117.16
2018-11-21T04:44:49.843Z,100111.92
2018-11-21T04:47:41.020Z,100100.83
2018-11-21T04:50:30.859Z,100078.47
2018-11-21T04:53:20.289Z,100079.66
2018-11-21T04:56:09.761Z,100080.22
2018-11-21T04:58:59.205Z,100070.48
2018-11-21T05:01:48.600Z,100081.52
2018-11-21T05:04:38.070Z,100093.13
2018-11-21T05:07:27.301Z,100097.23
2018-11-21T05:10:16.514Z,100102.95
2018-11-21T05:13:05.906Z,100101.31
2018-11-21T05:15:55.459Z,100099.41
2018-11-21T05:18:45.176Z,100113.48
2018-11-21T05:21:34.544Z,100107.58
2018-11-21T05:24:23.471Z,100105.16
2018-11-21T05:27:13.245Z,100101.49
2018-11-21T05:30:02.716Z,100104.41
2018-11-21T05:32:52.026Z,100106.50
2018-11-21T05:35:42.502Z,100107.70
2018-11-21T05:38:31.978Z,100110.12
2018-11-21T05:41:21.588Z,100108.70
2018-11-21T05:44:11.018Z,100114.30
2018-11-21T05:47:00.665Z,100109.19
2018-11-21T05:49:49.819Z,100102.73
2018-11-21T05:52:39.594Z,100115.64
2018-11-21T05:55:29.108Z,100122.78
2018-11-21T05:58:19.085Z,100115.05
2018-11-21T06:01:08.976Z,100108.63
2018-11-21T06:03:58.188Z,100097.78
2018-11-21T06:06:47.486Z,100094.25
2018-11-21T06:09:37.200Z,100097.84
2018-11-21T06:12:27.017Z,100101.62
2018-11-21T06:15:16.382Z,100099.28
2018-11-21T06:18:06.537Z,100095.67
2018-11-21T06:20:56.026Z,100098.80
2018-11-21T06:23:45.336Z,100098.44
2018-11-21T06:26:34.433Z,100097.31
2018-11-21T06:29:23.872Z,100104.69
2018-11-21T06:32:13.742Z,100100.56
2018-11-21T06:35:03.525Z,100103.70
2018-11-21T06:37:53.221Z,100089.40
2018-11-21T06:40:42.948Z,100087.02
2018-11-21T06:43:32.358Z,100086.84
2018-11-21T06:46:21.538Z,100096.42
2018-11-21T06:49:11.390Z,100090.89
2018-11-21T06:52:00.679Z,100095.00
2018-11-21T06:54:50.183Z,100091.08
2018-11-21T06:57:39.784Z,100104.44
2018-11-21T07:00:29.420Z,100099.75
2018-11-21T07:03:19.850Z,100091.09
2018-11-21T07:06:09.773Z,100100.83
2018-11-21T07:08:59.569Z,100107.34
2018-11-21T07:11:49.383Z,100109.66
2018-11-21T07:14:39.264Z,100117.36
2018-11-21T07:17:29.564Z,100121.13
2018-11-21T07:20:20.070Z,100122.55
2018-11-21T07:23:09.603Z,100126.11
2018-11-21T07:25:59.053Z,100135.84
2018-11-21T07:28:48.733Z,100131.63
2018-11-21T07:31:38.130Z,100145.99
2018-11-21T07:34:28.592Z,100149.77
2018-11-21T07:37:18.836Z,100139.58
2018-11-21T07:40:11.986Z,100142.56
2018-11-21T07:43:01.866Z,100159.25
2018-11-21T07:45:52.324Z,100164.64
2018-11-21T07:48:42.473Z,100158.90
2018-11-21T07:51:32.669Z,100165.47
2018-11-21T07:54:22.838Z,100179.44
2018-11-21T07:57:39.687Z,100167.35
2018-11-21T08:01:05.787Z,100169.86
2018-11-21T08:04:12.934Z,100173.81
2018-11-21T08:07:15.489Z,100176.57
2018-11-21T08:10:31.628Z,100178.40
2018-11-21T08:13:52.969Z,100192.09
2018-11-21T08:17:20.102Z,100198.77
2018-11-21T08:20:35.297Z,100202.92
2018-11-21T08:23:42.985Z,100210.97
2018-11-21T08:26:48.441Z,100208.39
2018-11-21T08:29:38.232Z,100198.23
2018-11-21T08:32:28.137Z,100195.03
2018-11-21T08:35:18.303Z,100201.75
2018-11-21T08:38:08.616Z,100213.22
2018-11-21T08:40:58.746Z,100208.48
2018-11-21T08:43:48.572Z,100207.65
2018-11-21T08:46:38.749Z,100200.16
2018-11-21T08:49:28.249Z,100200.64
2018-11-21T08:52:17.448Z,100204.25
2018-11-21T08:55:09.109Z,100198.77
2018-11-21T08:57:58.403Z,100202.46
2018-11-21T09:00:48.258Z,100184.23
2018-11-21T09:03:38.018Z,100200.10
2018-11-21T09:06:27.103Z,100200.19
2018-11-21T09:09:16.484Z,100194.17
2018-11-21T09:12:08.706Z,100185.28
2018-11-21T09:14:56.223Z,100198.13
2018-11-21T09:17:46.508Z,100199.49
2018-11-21T09:20:36.200Z,100199.06
2018-11-21T09:23:25.860Z,100193.03
2018-11-21T09:26:15.323Z,100191.42
2018-11-21T09:29:04.691Z,100196.94
2018-11-21T09:31:54.489Z,100195.66
2018-11-21T09:34:44.283Z,100198.45
2018-11-21T09:37:33.945Z,100199.41
2018-11-21T09:40:24.358Z,100188.30
2018-11-21T09:43:13.971Z,100181.47
2018-11-21T09:46:03.606Z,100183.84
2018-11-21T09:48:52.954Z,100176.04
2018-11-21T09:51:42.261Z,100171.63
2018-11-21T09:54:32.114Z,100172.23
2018-11-21T09:57:21.720Z,100169.86
2018-11-21T10:00:49.122Z,100166.13
2018-11-21T10:03:39.571Z,100152.55
2018-11-21T10:06:31.759Z,100156.07
2018-11-21T10:10:14.632Z,100145.59
2018-11-21T10:13:07.045Z,100137.52
2018-11-21T10:16:01.102Z,100137.52
2018-11-21T10:18:53.758Z,100150.77
2018-11-21T10:21:45.873Z,100147.31
2018-11-21T10:24:38.484Z,100148.95
2018-11-21T10:27:30.500Z,100150.71
2018-11-21T10:30:23.115Z,100147.50
2018-11-21T10:33:17.481Z,100146.35
2018-11-21T10:36:10.224Z,100146.05
2018-11-21T10:39:02.399Z,100144.51
2018-11-21T10:41:55.133Z,100135.91
2018-11-21T10:44:47.351Z,100147.45
2018-11-21T10:47:39.666Z,100141.45
2018-11-21T10:50:32.096Z,100141.45
2018-11-21T10:53:24.299Z,100150.39
2018-11-21T10:56:16.664Z,100150.39
2018-11-21T10:59:08.987Z,100147.50
2018-11-21T11:02:18.412Z,100147.50
2018-11-21T11:05:41.184Z,100138.20
2018-11-21T11:08:53.230Z,100136.03
2018-11-21T11:12:03.971Z,100139.11
2018-11-21T11:15:14.524Z,100125.44
2018-11-21T11:18:44.278Z,100117.36
2018-11-21T11:21:50.996Z,100116.41
2018-11-21T11:24:53.628Z,100103.03
2018-11-21T11:28:22.190Z,100099.47
2018-11-21T11:31:48.774Z,100096.27
2018-11-21T11:35:01.068Z,100101.68
2018-11-21T11:38:10.601Z,100094.18
2018-11-21T11:41:27.103Z,100092.30
2018-11-21T11:44:37.440Z,100089.59
2018-11-21T11:47:53.725Z,100089.59
2018-11-21T11:51:06.038Z,100090.48
2018-11-21T11:54:16.519Z,100088.50
2018-11-21T11:57:36.432Z,100088.04
2018-11-21T12:00:46.915Z,100090.54
2018-11-21T12:04:09.354Z,100085.16
2018-11-21T12:07:18.606Z,100084.44
2018-11-21T12:10:38.192Z,100085.42
2018-11-21T12:13:47.826Z,100083.09
2018-11-21T12:17:13.207Z,100085.78
2018-11-21T12:20:26.583Z,100080.01
2018-11-21T12:23:36.563Z,100085.06
2018-11-21T12:26:50.057Z,100079.30
2018-11-21T12:29:58.867Z,100076.62
2018-11-21T12:33:21.107Z,100080.83
2018-11-21T12:36:37.518Z,100086.38
2018-11-21T12:39:39.647Z,100094.01
2018-11-21T12:42:49.246Z,100097.66
2018-11-21T12:49:19.856Z,100103.72
2018-11-21T12:52:29.311Z,100109.00
2018-11-21T12:55:39.012Z,100109.20
2018-11-21T12:58:44.168Z,100112.56
2018-11-21T13:01:54.752Z,100101.46
2018-11-21T13:05:06.276Z,100102.79
2018-11-21T13:08:17.113Z,100097.58
2018-11-21T13:11:23.954Z,100101.48
2018-11-21T13:14:34.290Z,100104.34
2018-11-21T13:17:56.260Z,100112.98
2018-11-21T13:21:12.741Z,100111.63
2018-11-21T13:24:23.176Z,100108.27
2018-11-21T13:27:36.610Z,100104.53
2018-11-21T13:30:40.737Z,100102.18
2018-11-21T13:34:07.481Z,100107.07
2018-11-21T13:37:33.329Z,100111.63
2018-11-21T13:40:44.824Z,100116.67
2018-11-21T13:43:44.305Z,100115.98
2018-11-21T13:47:10.294Z,100118.70
2018-11-21T13:50:19.683Z,100126.80
2018-11-21T13:53:45.585Z,100125.45
2018-11-21T13:56:38.360Z,100131.87
2018-11-21T13:59:30.524Z,100128.50
2018-11-21T14:02:22.801Z,100123.09
2018-11-21T14:05:15.294Z,100123.09
2018-11-21T14:08:07.362Z,100122.02
2018-11-21T14:10:59.667Z,100122.23
2018-11-21T14:13:51.773Z,100123.05
2018-11-21T14:16:44.036Z,100126.09
2018-11-21T14:19:36.252Z,100131.19
2018-11-21T14:22:28.716Z,100127.80
2018-11-21T14:25:20.730Z,100130.86
2018-11-21T14:28:13.688Z,100129.50
2018-11-21T14:31:05.790Z,100128.84
2018-11-21T14:33:59.299Z,100124.41
2018-11-21T14:36:51.512Z,100122.23
2018-11-21T14:39:43.592Z,100119.66
2018-11-21T14:42:35.846Z,100120.36
2018-11-21T14:45:28.443Z,100118.28
2018-11-21T14:48:20.875Z,100124.55
2018-11-21T14:51:13.283Z,100127.09
2018-11-21T14:54:05.910Z,100133.80
2018-11-21T14:56:58.290Z,100139.04
2018-11-21T14:59:50.689Z,100136.48
2018-11-21T15:02:43.236Z,100143.38
2018-11-21T15:05:35.507Z,100147.22
2018-11-21T15:08:27.704Z,100149.14
2018-11-21T15:11:20.049Z,100162.73
2018-11-21T15:14:12.725Z,100157.50
2018-11-21T15:17:05.071Z,100152.63
2018-11-21T15:19:57.430Z,100150.75
2018-11-21T15:22:49.607Z,100155.45
2018-11-21T15:25:41.996Z,100153.45
2018-11-21T15:28:34.250Z,100152.06
2018-11-21T15:31:27.014Z,100153.78
2018-11-21T15:34:19.112Z,100160.17
2018-11-21T15:37:11.660Z,100160.17
2018-11-21T15:40:03.877Z,100167.05
2018-11-21T15:42:56.146Z,100169.28
2018-11-21T15:45:48.302Z,100176.53
2018-11-21T15:48:40.642Z,100182.71
2018-11-21T15:51:33.276Z,100190.52
2018-11-21T15:54:25.383Z,100194.37
2018-11-21T15:57:17.726Z,100194.53
2018-11-21T16:00:23.972Z,100199.19
2018-11-21T16:03:16.166Z,100205.02
2018-11-21T16:06:08.533Z,100219.65
2018-11-21T16:09:00.960Z,100217.88
2018-11-21T16:11:52.982Z,100226.98
2018-11-21T16:14:45.313Z,100230.82
2018-11-21T16:17:37.505Z,100221.22
2018-11-21T16:20:31.714Z,100225.48
2018-11-21T16:23:24.138Z,100232.02
2018-11-21T16:26:16.121Z,100231.84
2018-11-21T16:29:08.812Z,100228.33
2018-11-21T16:32:01.350Z,100226.98
2018-11-21T16:34:53.974Z,100236.27
2018-11-21T16:37:46.188Z,100230.37
2018-11-21T16:40:38.880Z,100231.56
2018-11-21T16:43:31.205Z,100233.72
2018-11-21T16:46:23.285Z,100233.72
2018-11-21T16:49:15.767Z,100229.47
2018-11-21T16:52:08.640Z,100228.02
2018-11-21T16:55:00.797Z,100232.55
2018-11-21T16:57:54.146Z,100230.77
2018-11-21T17:00:46.455Z,100237.30
2018-11-21T17:03:38.950Z,100241.60
2018-11-21T17:06:31.352Z,100241.37
2018-11-21T17:09:23.485Z,100247.15
2018-11-21T17:12:16.616Z,100250.02
2018-11-21T17:15:11.050Z,100246.94
2018-11-21T17:18:02.998Z,100248.92
2018-11-21T17:20:55.445Z,100255.67
2018-11-21T17:23:47.749Z,100257.23
2018-11-21T17:26:40.207Z,100258.03
2018-11-21T17:29:32.461Z,100258.05
2018-11-21T17:32:24.832Z,100260.02
2018-11-21T17:35:17.885Z,100262.89
2018-11-21T17:38:10.452Z,100265.10
2018-11-21T17:41:02.721Z,100269.05
2018-11-21T17:43:55.651Z,100273.80
2018-11-21T17:46:47.799Z,100284.83
2018-11-21T17:49:40.251Z,100284.86
2018-11-21T17:52:32.476Z,100281.77
2018-11-21T17:55:26.336Z,100285.16
2018-11-21T17:58:19.197Z,100282.44
2018-11-21T18:01:14.991Z,100279.84
2018-11-21T18:04:07.794Z,100281.58
2018-11-21T18:07:00.048Z,100281.67
2018-11-21T18:09:52.199Z,100280.17
2018-11-21T18:12:44.692Z,100285.41
2018-11-21T18:15:36.993Z,100276.52
2018-11-21T18:18:29.314Z,100275.73
2018-11-21T18:21:21.712Z,100281.33
2018-11-21T18:24:13.959Z,100284.14
2018-11-21T18:27:06.163Z,100291.09
2018-11-21T18:29:59.749Z,100291.55
2018-11-21T18:32:52.290Z,100292.19
2018-11-21T18:35:44.410Z,100300.60
2018-11-21T18:38:36.578Z,100302.73
2018-11-21T18:41:28.883Z,100306.22
2018-11-21T18:44:21.059Z,100310.41
2018-11-21T18:47:13.453Z,100310.44
2018-11-21T18:50:08.028Z,100316.38
2018-11-21T18:52:59.000Z,100316.66
2018-11-21T18:55:53.915Z,100324.10
2018-11-21T18:59:25.680Z,100332.52
2018-11-21T19:02:17.983Z,100333.13
2018-11-21T19:05:10.298Z,100335.37
2018-11-21T19:08:04.496Z,100336.59
2018-11-21T19:10:56.573Z,100345.16
2018-11-21T19:13:48.852Z,100342.27
2018-11-21T19:16:41.015Z,100345.17
2018-11-21T19:19:32.941Z,100341.80
2018-11-21T19:22:25.274Z,100349.80
2018-11-21T19:25:17.516Z,100349.57
2018-11-21T19:28:10.023Z,100350.09
2018-11-21T19:31:02.115Z,100350.09
2018-11-21T19:33:54.230Z,100348.95
2018-11-21T19:36:46.418Z,100350.87
2018-11-21T19:39:38.649Z,100356.88
2018-11-21T19:42:30.925Z,100354.82
2018-11-21T19:45:23.406Z,100350.84
2018-11-21T19:48:15.587Z,100363.75
2018-11-21T19:51:08.588Z,100360.28
2018-11-21T19:54:00.949Z,100360.48
2018-11-21T19:56:54.035Z,100362.91
2018-11-21T19:59:46.291Z,100358.00
2018-11-21T20:02:38.886Z,100360.70
2018-11-21T20:05:33.237Z,100361.19
2018-11-21T20:08:25.745Z,100363.79
2018-11-21T20:11:17.690Z,100362.70
2018-11-21T20:14:09.767Z,100359.83
2018-11-21T20:17:01.895Z,100367.21
2018-11-21T20:19:54.080Z,100361.19
2018-11-21T20:22:46.649Z,100364.64
2018-11-21T20:25:38.820Z,100367.00
2018-11-21T20:28:31.756Z,100372.11
2018-11-21T20:31:23.948Z,100378.56
2018-11-21T20:34:16.227Z,100382.44
2018-11-21T20:37:08.332Z,100384.77
2018-11-21T20:40:00.758Z,100382.59
2018-11-21T20:42:53.043Z,100382.93
2018-11-21T20:45:45.268Z,100392.01
2018-11-21T20:48:37.600Z,100395.41
2018-11-21T20:51:29.832Z,100388.73
2018-11-21T20:54:22.348Z,100397.09
2018-11-21T20:57:14.599Z,100392.64
2018-11-21T21:00:10.571Z,100393.27
2018-11-21T21:03:02.413Z,100395.09
2018-11-21T21:05:54.339Z,100398.56
2018-11-21T21:08:46.366Z,100388.89
2018-11-21T21:11:39.023Z,100394.04
2018-11-21T21:14:31.528Z,100402.41
2018-11-21T21:17:23.813Z,100401.95
2018-11-21T21:20:18.109Z,100408.66
2018-11-21T21:23:10.390Z,100418.38
2018-11-21T21:26:02.413Z,100414.34
2018-11-21T21:28:54.942Z,100422.11
2018-11-21T21:31:47.353Z,100424.00
2018-11-21T21:34:39.297Z,100430.48
2018-11-21T21:37:31.500Z,100429.66
2018-11-21T21:40:27.025Z,100429.66
2018-11-21T21:43:19.773Z,100435.50
2018-11-21T21:46:13.533Z,100437.28
2018-11-21T21:49:05.829Z,100437.84
2018-11-21T21:51:58.155Z,100431.91
2018-11-21T21:54:50.455Z,100440.35
2018-11-21T21:58:36.017Z,100449.66
2018-11-21T22:01:28.250Z,100451.73
2018-11-21T22:04:42.848Z,100459.75
2018-11-21T22:12:16.776Z,100452.69
2018-11-21T22:15:27.185Z,100458.22
2018-11-21T22:18:19.511Z,100450.30
2018-11-21T22:21:11.878Z,100458.04
2018-11-21T22:24:04.298Z,100462.80
2018-11-21T22:26:56.781Z,100458.66
2018-11-21T22:29:49.539Z,100458.66
2018-11-21T22:32:42.670Z,100450.01
2018-11-21T22:35:38.073Z,100464.11
2018-11-21T22:38:31.042Z,100473.40
2018-11-21T22:41:22.714Z,100471.25
2018-11-21T22:44:15.166Z,100470.14
2018-11-21T22:47:07.483Z,100470.05
2018-11-21T22:49:59.743Z,100469.98
2018-11-21T22:52:52.320Z,100460.75
2018-11-21T22:55:44.886Z,100458.20
2018-11-21T22:58:37.325Z,100465.98
2018-11-21T23:01:32.851Z,100465.75
2018-11-21T23:04:25.340Z,100473.70
2018-11-21T23:07:17.711Z,100469.19
2018-11-21T23:10:11.776Z,100478.23
2018-11-21T23:13:03.829Z,100480.69
2018-11-21T23:15:56.251Z,100479.03
2018-11-21T23:18:48.521Z,100475.95
2018-11-21T23:21:40.996Z,100484.14
2018-11-21T23:24:33.098Z,100482.95
2018-11-21T23:27:25.345Z,100482.38
2018-11-21T23:30:18.903Z,100485.47
2018-11-21T23:33:11.330Z,100487.70
2018-11-21T23:36:03.604Z,100486.36
2018-11-21T23:38:55.709Z,100492.34
2018-11-21T23:41:47.643Z,100492.83
2018-11-21T23:44:40.244Z,100493.83
2018-11-21T23:47:32.523Z,100496.90
2018-11-21T23:50:25.072Z,100489.81
2018-11-21T23:53:17.135Z,100494.44
2018-11-21T23:56:09.507Z,100497.16
2018-11-21T23:59:01.975Z,100489.11
